sensor_id;sensor_type;location;lat;lon;timestamp;pressure;altitude;pressure_sealevel;temperature;humidity
46127;BME280;31859;55.030;-1.550;2022-10-16T00:01:31;69454.71;;;22.19;95.59
46127;BME280;31859;55.030;-1.550;2022-10-16T00:03:59;69454.71;;;21.97;95.59
46127;BME280;31859;55.030;-1.550;2022-10-16T00:06:27;69454.71;;;21.70;95.59
46127;BME280;31859;55.030;-1.550;2022-10-16T00:08:55;69454.71;;;21.97;95.59
46127;BME280;31859;55.030;-1.550;2022-10-16T00:11:25;69454.71;;;21.97;95.59
46127;BME280;31859;55.030;-1.550;2022-10-16T00:13:56;69454.71;;;21.48;95.59
46127;BME280;31859;55.030;-1.550;2022-10-16T00:16:24;69454.71;;;21.48;95.59
46127;BME280;31859;55.030;-1.550;2022-10-16T00:18:52;69454.71;;;21.48;95.59
46127;BME280;31859;55.030;-1.550;2022-10-16T00:21:21;69454.71;;;21.48;95.59
46127;BME280;31859;55.030;-1.550;2022-10-16T00:23:51;69454.71;;;21.26;95.59
46127;BME280;31859;55.030;-1.550;2022-10-16T00:26:19;69454.71;;;21.70;95.59
46127;BME280;31859;55.030;-1.550;2022-10-16T00:28:47;69454.71;;;21.48;95.59
46127;BME280;31859;55.030;-1.550;2022-10-16T00:31:16;69454.71;;;21.48;95.59
46127;BME280;31859;55.030;-1.550;2022-10-16T00:33:44;69454.71;;;21.26;95.59
46127;BME280;31859;55.030;-1.550;2022-10-16T00:36:14;69454.71;;;21.48;95.59
46127;BME280;31859;55.030;-1.550;2022-10-16T00:38:42;69454.71;;;21.48;95.59
46127;BME280;31859;55.030;-1.550;2022-10-16T00:41:11;69454.71;;;21.48;95.59
46127;BME280;31859;55.030;-1.550;2022-10-16T00:43:41;69454.71;;;21.48;95.59
46127;BME280;31859;55.030;-1.550;2022-10-16T00:46:15;69454.71;;;21.70;95.59
46127;BME280;31859;55.030;-1.550;2022-10-16T00:48:47;69454.71;;;21.48;95.59
46127;BME280;31859;55.030;-1.550;2022-10-16T00:51:19;69454.71;;;21.48;95.59
46127;BME280;31859;55.030;-1.550;2022-10-16T00:53:48;69454.71;;;21.70;95.59
46127;BME280;31859;55.030;-1.550;2022-10-16T00:56:16;69454.71;;;21.48;95.59
46127;BME280;31859;55.030;-1.550;2022-10-16T00:58:44;69454.71;;;21.48;95.59
46127;BME280;31859;55.030;-1.550;2022-10-16T01:01:12;69454.71;;;21.26;95.59
46127;BME280;31859;55.030;-1.550;2022-10-16T01:03:40;69454.71;;;21.70;95.59
46127;BME280;31859;55.030;-1.550;2022-10-16T01:06:22;69454.71;;;21.70;95.59
46127;BME280;31859;55.030;-1.550;2022-10-16T01:09:01;69454.71;;;21.48;95.59
46127;BME280;31859;55.030;-1.550;2022-10-16T01:11:35;69454.71;;;21.70;95.59
46127;BME280;31859;55.030;-1.550;2022-10-16T01:14:14;69454.71;;;21.97;95.59
46127;BME280;31859;55.030;-1.550;2022-10-16T01:16:51;69454.71;;;21.97;95.59
46127;BME280;31859;55.030;-1.550;2022-10-16T01:19:26;69454.71;;;21.70;95.59
46127;BME280;31859;55.030;-1.550;2022-10-16T01:21:58;69454.71;;;21.97;95.59
46127;BME280;31859;55.030;-1.550;2022-10-16T01:24:32;69454.71;;;21.97;95.59
46127;BME280;31859;55.030;-1.550;2022-10-16T01:27:09;69454.71;;;21.97;95.59
46127;BME280;31859;55.030;-1.550;2022-10-16T01:29:49;69454.71;;;21.97;95.59
46127;BME280;31859;55.030;-1.550;2022-10-16T01:32:23;69454.71;;;21.97;95.59
46127;BME280;31859;55.030;-1.550;2022-10-16T01:34:54;69454.71;;;21.70;95.59
46127;BME280;31859;55.030;-1.550;2022-10-16T01:37:32;69454.71;;;21.70;95.59
46127;BME280;31859;55.030;-1.550;2022-10-16T01:40:02;69454.71;;;21.70;95.59
46127;BME280;31859;55.030;-1.550;2022-10-16T01:42:35;69454.71;;;21.97;95.59
46127;BME280;31859;55.030;-1.550;2022-10-16T01:45:07;69454.71;;;21.97;95.59
46127;BME280;31859;55.030;-1.550;2022-10-16T01:47:35;69454.71;;;21.48;95.59
46127;BME280;31859;55.030;-1.550;2022-10-16T01:50:05;69454.71;;;21.48;95.59
46127;BME280;31859;55.030;-1.550;2022-10-16T01:52:43;69454.71;;;21.48;95.59
46127;BME280;31859;55.030;-1.550;2022-10-16T01:55:16;69454.71;;;21.48;95.59
46127;BME280;31859;55.030;-1.550;2022-10-16T01:57:48;69454.71;;;21.26;95.59
46127;BME280;31859;55.030;-1.550;2022-10-16T02:00:21;69454.71;;;21.48;95.59
46127;BME280;31859;55.030;-1.550;2022-10-16T02:02:53;69454.71;;;21.70;95.59
46127;BME280;31859;55.030;-1.550;2022-10-16T02:05:23;69454.71;;;21.70;95.59
46127;BME280;31859;55.030;-1.550;2022-10-16T02:07:53;69454.71;;;21.97;95.59
46127;BME280;31859;55.030;-1.550;2022-10-16T02:10:21;69454.71;;;21.97;95.59
46127;BME280;31859;55.030;-1.550;2022-10-16T02:12:53;69454.71;;;22.19;95.59
46127;BME280;31859;55.030;-1.550;2022-10-16T02:15:23;69454.71;;;21.97;95.59
46127;BME280;31859;55.030;-1.550;2022-10-16T02:17:50;69454.71;;;21.97;95.59
46127;BME280;31859;55.030;-1.550;2022-10-16T02:20:21;69454.71;;;21.97;95.59
46127;BME280;31859;55.030;-1.550;2022-10-16T02:22:54;69454.71;;;21.97;95.59
46127;BME280;31859;55.030;-1.550;2022-10-16T02:25:28;69454.71;;;21.70;95.59
46127;BME280;31859;55.030;-1.550;2022-10-16T02:28:00;69454.71;;;21.97;95.59
46127;BME280;31859;55.030;-1.550;2022-10-16T02:30:34;69454.71;;;21.70;95.59
46127;BME280;31859;55.030;-1.550;2022-10-16T02:33:05;69454.71;;;21.97;95.59
46127;BME280;31859;55.030;-1.550;2022-10-16T02:35:34;69454.71;;;21.97;95.59
46127;BME280;31859;55.030;-1.550;2022-10-16T02:38:03;69454.71;;;21.97;95.59
46127;BME280;31859;55.030;-1.550;2022-10-16T02:40:31;69454.71;;;21.70;95.59
46127;BME280;31859;55.030;-1.550;2022-10-16T02:42:58;69454.71;;;21.97;95.59
46127;BME280;31859;55.030;-1.550;2022-10-16T02:45:26;69454.71;;;22.46;95.59
46127;BME280;31859;55.030;-1.550;2022-10-16T02:47:53;69454.71;;;22.19;95.59
46127;BME280;31859;55.030;-1.550;2022-10-16T02:50:21;69454.71;;;22.46;95.59
46127;BME280;31859;55.030;-1.550;2022-10-16T02:52:48;69454.71;;;22.46;95.59
46127;BME280;31859;55.030;-1.550;2022-10-16T02:55:16;69454.71;;;22.19;95.59
46127;BME280;31859;55.030;-1.550;2022-10-16T02:57:44;69454.71;;;22.46;95.59
46127;BME280;31859;55.030;-1.550;2022-10-16T03:00:15;69454.71;;;22.46;95.59
46127;BME280;31859;55.030;-1.550;2022-10-16T03:02:42;69454.71;;;22.46;95.59
46127;BME280;31859;55.030;-1.550;2022-10-16T03:05:10;69454.71;;;22.46;95.59
46127;BME280;31859;55.030;-1.550;2022-10-16T03:07:38;69454.71;;;22.19;95.59
46127;BME280;31859;55.030;-1.550;2022-10-16T03:10:05;69454.71;;;22.46;95.59
46127;BME280;31859;55.030;-1.550;2022-10-16T03:12:33;69454.71;;;22.46;95.59
46127;BME280;31859;55.030;-1.550;2022-10-16T03:15:00;69454.71;;;22.46;95.59
46127;BME280;31859;55.030;-1.550;2022-10-16T03:17:27;69454.71;;;22.46;95.59
46127;BME280;31859;55.030;-1.550;2022-10-16T03:19:54;69454.71;;;22.46;95.59
46127;BME280;31859;55.030;-1.550;2022-10-16T03:22:21;69454.71;;;22.46;95.59
46127;BME280;31859;55.030;-1.550;2022-10-16T03:24:48;69454.71;;;22.46;95.59
46127;BME280;31859;55.030;-1.550;2022-10-16T03:27:15;69454.71;;;22.46;95.59
46127;BME280;31859;55.030;-1.550;2022-10-16T03:29:42;69454.71;;;22.46;95.59
46127;BME280;31859;55.030;-1.550;2022-10-16T03:32:09;69454.71;;;22.46;95.59
46127;BME280;31859;55.030;-1.550;2022-10-16T03:34:36;69454.71;;;22.46;95.59
46127;BME280;31859;55.030;-1.550;2022-10-16T03:37:03;69454.71;;;22.46;95.59
46127;BME280;31859;55.030;-1.550;2022-10-16T03:39:31;69454.71;;;22.19;95.59
46127;BME280;31859;55.030;-1.550;2022-10-16T03:41:58;69454.71;;;22.46;95.59
46127;BME280;31859;55.030;-1.550;2022-10-16T03:44:25;69454.71;;;22.46;95.59
46127;BME280;31859;55.030;-1.550;2022-10-16T03:46:52;69454.71;;;22.46;95.59
46127;BME280;31859;55.030;-1.550;2022-10-16T03:49:19;69454.71;;;22.46;95.59
46127;BME280;31859;55.030;-1.550;2022-10-16T03:51:46;69454.71;;;22.46;95.59
46127;BME280;31859;55.030;-1.550;2022-10-16T03:54:13;69454.71;;;21.97;95.59
46127;BME280;31859;55.030;-1.550;2022-10-16T03:56:40;69454.71;;;21.97;95.59
46127;BME280;31859;55.030;-1.550;2022-10-16T03:59:07;69454.71;;;22.46;95.59
46127;BME280;31859;55.030;-1.550;2022-10-16T04:01:35;69454.71;;;22.19;95.59
46127;BME280;31859;55.030;-1.550;2022-10-16T04:04:03;69454.71;;;22.19;95.59
46127;BME280;31859;55.030;-1.550;2022-10-16T04:06:30;69454.71;;;22.46;95.59
46127;BME280;31859;55.030;-1.550;2022-10-16T04:08:57;69454.71;;;22.46;95.59
46127;BME280;31859;55.030;-1.550;2022-10-16T04:11:25;69454.71;;;22.46;95.59
46127;BME280;31859;55.030;-1.550;2022-10-16T04:13:51;69454.71;;;22.19;95.59
46127;BME280;31859;55.030;-1.550;2022-10-16T04:16:18;69454.71;;;21.97;95.59
46127;BME280;31859;55.030;-1.550;2022-10-16T04:18:46;69454.71;;;22.19;95.59
46127;BME280;31859;55.030;-1.550;2022-10-16T04:21:12;69454.71;;;21.97;95.59
46127;BME280;31859;55.030;-1.550;2022-10-16T04:23:42;69454.71;;;21.97;95.59
46127;BME280;31859;55.030;-1.550;2022-10-16T04:26:09;69454.71;;;22.46;95.59
46127;BME280;31859;55.030;-1.550;2022-10-16T04:28:36;69454.71;;;22.46;95.59
46127;BME280;31859;55.030;-1.550;2022-10-16T04:31:04;69454.71;;;22.46;95.59
46127;BME280;31859;55.030;-1.550;2022-10-16T04:33:31;69454.71;;;22.46;95.59
46127;BME280;31859;55.030;-1.550;2022-10-16T04:35:59;69454.71;;;22.46;95.59
46127;BME280;31859;55.030;-1.550;2022-10-16T04:38:28;69454.71;;;22.46;95.59
46127;BME280;31859;55.030;-1.550;2022-10-16T04:40:55;69454.71;;;22.46;95.59
46127;BME280;31859;55.030;-1.550;2022-10-16T04:43:23;69454.71;;;22.46;95.59
46127;BME280;31859;55.030;-1.550;2022-10-16T04:45:50;69454.71;;;22.19;95.59
46127;BME280;31859;55.030;-1.550;2022-10-16T04:48:17;69454.71;;;22.19;95.59
46127;BME280;31859;55.030;-1.550;2022-10-16T04:50:45;69454.71;;;22.46;95.59
46127;BME280;31859;55.030;-1.550;2022-10-16T04:53:12;69454.71;;;22.46;95.59
46127;BME280;31859;55.030;-1.550;2022-10-16T04:55:41;69454.71;;;22.46;95.59
46127;BME280;31859;55.030;-1.550;2022-10-16T04:58:08;69454.71;;;22.46;95.59
46127;BME280;31859;55.030;-1.550;2022-10-16T05:00:36;69454.71;;;22.68;95.59
46127;BME280;31859;55.030;-1.550;2022-10-16T05:03:03;69454.71;;;22.19;95.59
46127;BME280;31859;55.030;-1.550;2022-10-16T05:05:30;69454.71;;;22.46;95.59
46127;BME280;31859;55.030;-1.550;2022-10-16T05:07:57;69454.71;;;22.19;95.59
46127;BME280;31859;55.030;-1.550;2022-10-16T05:10:24;69454.71;;;22.46;95.59
46127;BME280;31859;55.030;-1.550;2022-10-16T05:12:51;69454.71;;;22.46;95.59
46127;BME280;31859;55.030;-1.550;2022-10-16T05:15:18;69454.71;;;22.68;95.59
46127;BME280;31859;55.030;-1.550;2022-10-16T05:17:45;69454.71;;;22.68;95.59
46127;BME280;31859;55.030;-1.550;2022-10-16T05:20:12;69454.71;;;22.68;95.59
46127;BME280;31859;55.030;-1.550;2022-10-16T05:22:40;69454.71;;;22.68;95.59
46127;BME280;31859;55.030;-1.550;2022-10-16T05:25:08;69454.71;;;22.46;95.59
46127;BME280;31859;55.030;-1.550;2022-10-16T05:27:35;69454.71;;;22.90;95.59
46127;BME280;31859;55.030;-1.550;2022-10-16T05:30:03;69454.71;;;22.90;95.59
46127;BME280;31859;55.030;-1.550;2022-10-16T05:32:30;69454.71;;;22.46;95.59
46127;BME280;31859;55.030;-1.550;2022-10-16T05:34:58;69454.71;;;22.68;95.59
46127;BME280;31859;55.030;-1.550;2022-10-16T05:37:25;69454.71;;;22.68;95.59
46127;BME280;31859;55.030;-1.550;2022-10-16T05:39:54;69454.71;;;22.68;95.59
46127;BME280;31859;55.030;-1.550;2022-10-16T05:42:21;69454.71;;;22.90;95.59
46127;BME280;31859;55.030;-1.550;2022-10-16T05:44:48;69454.71;;;22.68;95.59
46127;BME280;31859;55.030;-1.550;2022-10-16T05:47:16;69454.71;;;22.68;95.59
46127;BME280;31859;55.030;-1.550;2022-10-16T05:49:43;69454.71;;;22.90;95.59
46127;BME280;31859;55.030;-1.550;2022-10-16T05:52:10;69454.71;;;22.90;95.59
46127;BME280;31859;55.030;-1.550;2022-10-16T05:54:38;69454.71;;;22.90;95.59
46127;BME280;31859;55.030;-1.550;2022-10-16T05:57:05;69454.71;;;22.90;95.59
46127;BME280;31859;55.030;-1.550;2022-10-16T05:59:32;69454.71;;;22.90;95.59
46127;BME280;31859;55.030;-1.550;2022-10-16T06:01:59;69454.71;;;22.68;95.59
46127;BME280;31859;55.030;-1.550;2022-10-16T06:04:27;69454.71;;;22.46;95.59
46127;BME280;31859;55.030;-1.550;2022-10-16T06:06:58;69454.71;;;22.68;95.59
46127;BME280;31859;55.030;-1.550;2022-10-16T06:09:26;69454.71;;;22.68;95.59
46127;BME280;31859;55.030;-1.550;2022-10-16T06:11:53;69454.71;;;22.68;95.59
46127;BME280;31859;55.030;-1.550;2022-10-16T06:14:21;69454.71;;;22.68;95.59
46127;BME280;31859;55.030;-1.550;2022-10-16T06:16:48;69454.71;;;22.90;95.59
46127;BME280;31859;55.030;-1.550;2022-10-16T06:19:15;69454.71;;;22.90;95.59
46127;BME280;31859;55.030;-1.550;2022-10-16T06:21:42;69454.71;;;22.90;95.59
46127;BME280;31859;55.030;-1.550;2022-10-16T06:24:15;69454.71;;;22.46;95.59
46127;BME280;31859;55.030;-1.550;2022-10-16T06:26:42;69454.71;;;22.68;95.59
46127;BME280;31859;55.030;-1.550;2022-10-16T06:29:09;69454.71;;;22.46;95.59
46127;BME280;31859;55.030;-1.550;2022-10-16T06:31:36;69454.71;;;22.68;95.59
46127;BME280;31859;55.030;-1.550;2022-10-16T06:34:04;69454.71;;;22.68;95.59
46127;BME280;31859;55.030;-1.550;2022-10-16T06:36:31;69454.71;;;22.46;95.59
46127;BME280;31859;55.030;-1.550;2022-10-16T06:38:58;69454.71;;;22.68;95.59
46127;BME280;31859;55.030;-1.550;2022-10-16T06:41:27;69454.71;;;22.90;95.59
46127;BME280;31859;55.030;-1.550;2022-10-16T06:43:55;69454.71;;;22.90;95.59
46127;BME280;31859;55.030;-1.550;2022-10-16T06:46:24;69454.71;;;22.68;95.59
46127;BME280;31859;55.030;-1.550;2022-10-16T06:48:53;69454.71;;;22.68;95.59
46127;BME280;31859;55.030;-1.550;2022-10-16T06:51:21;69454.71;;;22.68;95.59
46127;BME280;31859;55.030;-1.550;2022-10-16T06:53:51;69454.71;;;22.46;95.59
46127;BME280;31859;55.030;-1.550;2022-10-16T06:56:20;69454.71;;;22.68;95.59
46127;BME280;31859;55.030;-1.550;2022-10-16T06:58:49;69454.71;;;22.68;95.59
46127;BME280;31859;55.030;-1.550;2022-10-16T07:01:21;69454.71;;;22.68;95.59
46127;BME280;31859;55.030;-1.550;2022-10-16T07:03:49;69454.71;;;22.68;95.59
46127;BME280;31859;55.030;-1.550;2022-10-16T07:06:19;69454.71;;;22.46;95.59
46127;BME280;31859;55.030;-1.550;2022-10-16T07:08:47;69454.71;;;22.46;95.59
46127;BME280;31859;55.030;-1.550;2022-10-16T07:11:16;69454.71;;;22.46;95.59
46127;BME280;31859;55.030;-1.550;2022-10-16T07:13:46;69454.71;;;22.46;95.59
46127;BME280;31859;55.030;-1.550;2022-10-16T07:16:16;69454.71;;;22.46;95.59
46127;BME280;31859;55.030;-1.550;2022-10-16T07:18:44;69454.71;;;22.68;95.59
46127;BME280;31859;55.030;-1.550;2022-10-16T07:21:14;69454.71;;;22.19;95.59
46127;BME280;31859;55.030;-1.550;2022-10-16T07:23:42;69454.71;;;22.19;95.59
46127;BME280;31859;55.030;-1.550;2022-10-16T07:26:10;69454.71;;;21.97;95.59
46127;BME280;31859;55.030;-1.550;2022-10-16T07:28:38;69454.71;;;21.97;95.59
46127;BME280;31859;55.030;-1.550;2022-10-16T07:31:07;69454.71;;;22.19;95.59
46127;BME280;31859;55.030;-1.550;2022-10-16T07:33:35;69454.71;;;21.70;95.59
46127;BME280;31859;55.030;-1.550;2022-10-16T07:36:03;69454.71;;;21.70;95.59
46127;BME280;31859;55.030;-1.550;2022-10-16T07:38:31;69454.71;;;21.97;95.59
46127;BME280;31859;55.030;-1.550;2022-10-16T07:40:59;69454.71;;;21.97;95.59
46127;BME280;31859;55.030;-1.550;2022-10-16T07:43:27;69454.71;;;21.97;95.59
46127;BME280;31859;55.030;-1.550;2022-10-16T07:45:56;69454.71;;;21.97;95.59
46127;BME280;31859;55.030;-1.550;2022-10-16T07:48:26;69454.71;;;21.97;95.59
46127;BME280;31859;55.030;-1.550;2022-10-16T07:50:57;69454.71;;;21.97;95.59
46127;BME280;31859;55.030;-1.550;2022-10-16T07:53:25;69454.71;;;21.97;95.59
46127;BME280;31859;55.030;-1.550;2022-10-16T07:55:57;69454.71;;;21.97;95.59
46127;BME280;31859;55.030;-1.550;2022-10-16T07:58:25;69454.71;;;21.97;95.59
46127;BME280;31859;55.030;-1.550;2022-10-16T08:00:52;69454.71;;;21.97;95.59
46127;BME280;31859;55.030;-1.550;2022-10-16T08:03:19;69454.71;;;21.48;95.59
46127;BME280;31859;55.030;-1.550;2022-10-16T08:05:46;69454.71;;;21.97;95.59
46127;BME280;31859;55.030;-1.550;2022-10-16T08:08:16;69454.71;;;21.97;95.59
46127;BME280;31859;55.030;-1.550;2022-10-16T08:10:44;69454.71;;;21.70;95.59
46127;BME280;31859;55.030;-1.550;2022-10-16T08:13:12;69454.71;;;21.70;95.59
46127;BME280;31859;55.030;-1.550;2022-10-16T08:15:39;69454.71;;;21.70;95.59
46127;BME280;31859;55.030;-1.550;2022-10-16T08:18:06;69454.71;;;21.48;95.59
46127;BME280;31859;55.030;-1.550;2022-10-16T08:20:33;69454.71;;;21.70;95.59
46127;BME280;31859;55.030;-1.550;2022-10-16T08:23:01;69454.71;;;21.48;95.59
46127;BME280;31859;55.030;-1.550;2022-10-16T08:25:28;69454.71;;;21.26;95.59
46127;BME280;31859;55.030;-1.550;2022-10-16T08:27:56;69454.71;;;21.26;95.59
46127;BME280;31859;55.030;-1.550;2022-10-16T08:30:24;69454.71;;;21.26;95.59
46127;BME280;31859;55.030;-1.550;2022-10-16T08:32:51;69454.71;;;20.99;95.59
46127;BME280;31859;55.030;-1.550;2022-10-16T08:35:18;69454.71;;;21.48;95.59
46127;BME280;31859;55.030;-1.550;2022-10-16T08:37:45;69454.71;;;21.26;95.59
46127;BME280;31859;55.030;-1.550;2022-10-16T08:40:18;69454.71;;;21.48;95.59
46127;BME280;31859;55.030;-1.550;2022-10-16T08:42:57;69454.71;;;20.99;95.59
46127;BME280;31859;55.030;-1.550;2022-10-16T08:45:38;69454.71;;;20.99;95.59
46127;BME280;31859;55.030;-1.550;2022-10-16T08:48:16;69454.71;;;20.99;95.59
46127;BME280;31859;55.030;-1.550;2022-10-16T08:50:45;69454.71;;;20.99;95.59
46127;BME280;31859;55.030;-1.550;2022-10-16T08:53:17;69454.71;;;20.99;95.59
46127;BME280;31859;55.030;-1.550;2022-10-16T08:55:49;69454.71;;;20.99;95.59
46127;BME280;31859;55.030;-1.550;2022-10-16T08:58:18;69454.71;;;20.77;95.59
46127;BME280;31859;55.030;-1.550;2022-10-16T09:00:48;69454.71;;;20.99;95.59
46127;BME280;31859;55.030;-1.550;2022-10-16T09:03:27;69454.71;;;20.77;95.59
46127;BME280;31859;55.030;-1.550;2022-10-16T09:06:10;69454.71;;;20.77;95.59
46127;BME280;31859;55.030;-1.550;2022-10-16T09:08:51;69454.71;;;20.99;95.59
46127;BME280;31859;55.030;-1.550;2022-10-16T09:11:30;69454.71;;;20.55;95.59
46127;BME280;31859;55.030;-1.550;2022-10-16T09:14:06;69454.71;;;20.55;95.59
46127;BME280;31859;55.030;-1.550;2022-10-16T09:16:43;69454.71;;;20.77;95.59
46127;BME280;31859;55.030;-1.550;2022-10-16T09:19:17;69454.71;;;20.77;95.59
46127;BME280;31859;55.030;-1.550;2022-10-16T09:21:48;69454.71;;;20.55;95.59
46127;BME280;31859;55.030;-1.550;2022-10-16T09:24:18;69454.71;;;20.55;95.59
46127;BME280;31859;55.030;-1.550;2022-10-16T09:26:47;69454.71;;;20.55;95.59
46127;BME280;31859;55.030;-1.550;2022-10-16T09:29:17;69454.71;;;20.06;95.59
46127;BME280;31859;55.030;-1.550;2022-10-16T09:31:45;69454.71;;;20.28;95.59
46127;BME280;31859;55.030;-1.550;2022-10-16T09:34:29;69454.71;;;20.06;95.59
46127;BME280;31859;55.030;-1.550;2022-10-16T09:36:59;69454.71;;;20.28;95.59
46127;BME280;31859;55.030;-1.550;2022-10-16T09:39:27;69454.71;;;20.06;95.59
46127;BME280;31859;55.030;-1.550;2022-10-16T09:41:55;69454.71;;;20.55;95.59
46127;BME280;31859;55.030;-1.550;2022-10-16T09:44:24;69454.71;;;20.55;95.59
46127;BME280;31859;55.030;-1.550;2022-10-16T09:47:02;69454.71;;;20.99;95.59
46127;BME280;31859;55.030;-1.550;2022-10-16T09:49:30;69454.71;;;20.55;95.59
46127;BME280;31859;55.030;-1.550;2022-10-16T09:52:09;69454.71;;;20.55;95.59
46127;BME280;31859;55.030;-1.550;2022-10-16T09:54:38;69454.71;;;20.55;95.59
46127;BME280;31859;55.030;-1.550;2022-10-16T09:57:15;69454.71;;;20.06;95.59
46127;BME280;31859;55.030;-1.550;2022-10-16T09:59:46;69454.71;;;20.55;95.59
46127;BME280;31859;55.030;-1.550;2022-10-16T10:02:16;69454.71;;;19.79;95.59
46127;BME280;31859;55.030;-1.550;2022-10-16T10:04:50;69454.71;;;20.06;95.59
46127;BME280;31859;55.030;-1.550;2022-10-16T10:07:23;69454.71;;;20.28;95.59
46127;BME280;31859;55.030;-1.550;2022-10-16T10:09:51;69454.71;;;20.06;95.59
46127;BME280;31859;55.030;-1.550;2022-10-16T10:12:21;69454.71;;;20.06;95.59
46127;BME280;31859;55.030;-1.550;2022-10-16T10:14:50;69454.71;;;19.79;95.59
46127;BME280;31859;55.030;-1.550;2022-10-16T10:17:20;69454.71;;;20.28;95.59
46127;BME280;31859;55.030;-1.550;2022-10-16T10:19:51;69454.71;;;19.79;95.59
46127;BME280;31859;55.030;-1.550;2022-10-16T10:22:25;69454.71;;;20.06;95.59
46127;BME280;31859;55.030;-1.550;2022-10-16T10:25:00;69454.71;;;19.79;95.59
46127;BME280;31859;55.030;-1.550;2022-10-16T10:27:34;69454.71;;;19.79;95.59
46127;BME280;31859;55.030;-1.550;2022-10-16T10:30:13;69454.71;;;20.06;95.59
46127;BME280;31859;55.030;-1.550;2022-10-16T10:32:49;69454.71;;;20.06;95.59
46127;BME280;31859;55.030;-1.550;2022-10-16T10:35:24;69454.71;;;19.79;95.59
46127;BME280;31859;55.030;-1.550;2022-10-16T10:38:11;69454.71;;;19.79;95.59
46127;BME280;31859;55.030;-1.550;2022-10-16T10:40:48;69454.71;;;19.35;95.59
46127;BME280;31859;55.030;-1.550;2022-10-16T10:43:28;69454.71;;;18.86;95.59
46127;BME280;31859;55.030;-1.550;2022-10-16T10:46:01;69454.71;;;18.86;95.59
46127;BME280;31859;55.030;-1.550;2022-10-16T10:48:48;69454.71;;;19.08;95.59
46127;BME280;31859;55.030;-1.550;2022-10-16T10:51:27;69454.71;;;19.08;95.59
46127;BME280;31859;55.030;-1.550;2022-10-16T10:54:06;69454.71;;;18.86;95.59
46127;BME280;31859;55.030;-1.550;2022-10-16T10:56:45;69454.71;;;18.86;95.59
46127;BME280;31859;55.030;-1.550;2022-10-16T10:59:32;69454.71;;;18.86;95.59
46127;BME280;31859;55.030;-1.550;2022-10-16T11:02:12;69454.71;;;18.64;95.59
46127;BME280;31859;55.030;-1.550;2022-10-16T11:04:52;69454.71;;;18.37;95.59
46127;BME280;31859;55.030;-1.550;2022-10-16T11:07:25;69454.71;;;18.86;95.59
46127;BME280;31859;55.030;-1.550;2022-10-16T11:09:56;69454.71;;;18.86;95.59
46127;BME280;31859;55.030;-1.550;2022-10-16T11:12:28;69454.71;;;19.08;95.59
46127;BME280;31859;55.030;-1.550;2022-10-16T11:15:01;69454.71;;;19.08;95.59
46127;BME280;31859;55.030;-1.550;2022-10-16T11:17:33;69454.71;;;19.08;95.59
46127;BME280;31859;55.030;-1.550;2022-10-16T11:20:11;69454.71;;;19.35;95.59
46127;BME280;31859;55.030;-1.550;2022-10-16T11:22:44;69454.71;;;19.57;95.59
46127;BME280;31859;55.030;-1.550;2022-10-16T11:25:15;69454.71;;;19.08;95.59
46127;BME280;31859;55.030;-1.550;2022-10-16T11:27:47;69454.71;;;19.57;95.59
46127;BME280;31859;55.030;-1.550;2022-10-16T11:30:20;69454.71;;;19.08;95.59
46127;BME280;31859;55.030;-1.550;2022-10-16T11:32:56;69454.71;;;18.86;95.59
46127;BME280;31859;55.030;-1.550;2022-10-16T11:35:37;69454.71;;;19.08;95.59
46127;BME280;31859;55.030;-1.550;2022-10-16T11:38:12;69454.71;;;18.64;95.59
46127;BME280;31859;55.030;-1.550;2022-10-16T11:40:43;69454.71;;;19.08;95.59
46127;BME280;31859;55.030;-1.550;2022-10-16T11:43:15;69454.71;;;19.08;95.59
46127;BME280;31859;55.030;-1.550;2022-10-16T11:45:48;69454.71;;;19.08;95.59
46127;BME280;31859;55.030;-1.550;2022-10-16T11:48:23;69454.71;;;18.86;95.59
46127;BME280;31859;55.030;-1.550;2022-10-16T11:50:54;69454.71;;;18.64;95.59
46127;BME280;31859;55.030;-1.550;2022-10-16T11:53:31;69454.71;;;18.15;95.59
46127;BME280;31859;55.030;-1.550;2022-10-16T11:56:05;69454.71;;;17.88;95.59
46127;BME280;31859;55.030;-1.550;2022-10-16T11:58:37;69454.71;;;17.88;95.59
46127;BME280;31859;55.030;-1.550;2022-10-16T12:01:18;69454.71;;;18.15;95.59
46127;BME280;31859;55.030;-1.550;2022-10-16T12:03:59;69454.71;;;17.88;95.59
46127;BME280;31859;55.030;-1.550;2022-10-16T12:06:34;69454.71;;;18.15;95.59
46127;BME280;31859;55.030;-1.550;2022-10-16T12:09:04;69454.71;;;18.15;95.59
46127;BME280;31859;55.030;-1.550;2022-10-16T12:11:34;69454.71;;;18.15;95.59
46127;BME280;31859;55.030;-1.550;2022-10-16T12:14:37;69454.71;;;18.15;95.59
46127;BME280;31859;55.030;-1.550;2022-10-16T12:17:24;69454.71;;;18.15;95.59
46127;BME280;31859;55.030;-1.550;2022-10-16T12:20:12;69454.71;;;18.15;95.59
46127;BME280;31859;55.030;-1.550;2022-10-16T12:22:48;69454.71;;;18.86;95.59
46127;BME280;31859;55.030;-1.550;2022-10-16T12:25:22;69454.71;;;19.08;95.59
46127;BME280;31859;55.030;-1.550;2022-10-16T12:28:17;69454.71;;;18.64;95.59
46127;BME280;31859;55.030;-1.550;2022-10-16T12:30:54;69454.71;;;18.86;95.59
46127;BME280;31859;55.030;-1.550;2022-10-16T12:33:25;69454.71;;;19.08;95.59
46127;BME280;31859;55.030;-1.550;2022-10-16T12:35:52;69454.71;;;19.57;95.59
46127;BME280;31859;55.030;-1.550;2022-10-16T12:38:22;69454.71;;;19.08;95.59
46127;BME280;31859;55.030;-1.550;2022-10-16T12:40:58;69454.71;;;19.08;95.59
46127;BME280;31859;55.030;-1.550;2022-10-16T12:43:38;69454.71;;;19.08;95.59
46127;BME280;31859;55.030;-1.550;2022-10-16T12:46:22;69454.71;;;18.64;95.59
46127;BME280;31859;55.030;-1.550;2022-10-16T12:48:50;69454.71;;;18.86;95.59
46127;BME280;31859;55.030;-1.550;2022-10-16T12:51:25;69454.71;;;18.37;95.59
46127;BME280;31859;55.030;-1.550;2022-10-16T12:54:01;69454.71;;;18.64;95.59
46127;BME280;31859;55.030;-1.550;2022-10-16T12:56:37;69454.71;;;18.15;95.59
46127;BME280;31859;55.030;-1.550;2022-10-16T12:59:18;69454.71;;;18.15;95.59
46127;BME280;31859;55.030;-1.550;2022-10-16T13:02:15;69454.71;;;17.88;95.59
46127;BME280;31859;55.030;-1.550;2022-10-16T13:05:05;69454.71;;;18.15;95.59
46127;BME280;31859;55.030;-1.550;2022-10-16T13:07:49;69454.71;;;18.15;95.59
46127;BME280;31859;55.030;-1.550;2022-10-16T13:10:25;69454.71;;;18.15;95.59